createdAt,value
2018-03-21T00:00:47.750Z,-0.40
2018-03-21T00:03:18.378Z,-0.30
2018-03-21T00:05:44.754Z,-0.40
2018-03-21T00:08:12.156Z,-0.40
2018-03-21T00:10:38.692Z,-0.40
2018-03-21T00:13:05.681Z,-0.60
2018-03-21T00:15:31.867Z,-0.60
2018-03-21T00:17:58.163Z,-0.30
2018-03-21T00:20:24.430Z,-0.40
2018-03-21T00:22:50.724Z,-0.40
2018-03-21T00:25:16.965Z,-0.30
2018-03-21T00:27:43.962Z,-0.40
2018-03-21T00:30:10.240Z,-0.40
2018-03-21T00:32:36.653Z,-0.50
2018-03-21T00:35:02.919Z,-0.30
2018-03-21T00:37:29.304Z,-0.50
2018-03-21T00:39:55.599Z,-0.40
2018-03-21T00:42:21.904Z,-0.50
2018-03-21T00:44:48.307Z,-0.50
2018-03-21T00:47:14.751Z,-0.30
2018-03-21T00:49:41.047Z,-0.20
2018-03-21T00:52:07.469Z,-0.20
2018-03-21T00:54:34.452Z,-0.10
2018-03-21T00:57:00.820Z,-0.20
2018-03-21T00:59:27.154Z,-0.20
2018-03-21T01:01:53.544Z,-0.30
2018-03-21T01:04:20.531Z,-0.40
2018-03-21T01:06:46.783Z,-0.40
2018-03-21T01:09:15.220Z,-0.50
2018-03-21T01:11:42.224Z,-0.70
2018-03-21T01:14:09.455Z,-0.70
2018-03-21T01:16:36.468Z,-0.50
2018-03-21T01:19:02.832Z,-0.60
2018-03-21T01:21:50.772Z,-0.40
2018-03-21T01:24:17.049Z,-0.40
2018-03-21T01:26:44.111Z,-0.50
2018-03-21T01:29:11.125Z,-0.40
2018-03-21T01:31:37.546Z,-0.40
2018-03-21T01:34:03.841Z,-0.30
2018-03-21T01:36:30.407Z,-0.50
2018-03-21T01:38:56.817Z,-0.60
2018-03-21T01:41:23.106Z,-0.90
2018-03-21T01:43:49.364Z,-1.10
2018-03-21T01:46:18.985Z,-1.10
2018-03-21T01:48:47.222Z,-1.20
2018-03-21T01:51:13.719Z,-1.10
2018-03-21T01:53:40.977Z,-1.00
2018-03-21T01:56:08.028Z,-1.10
2018-03-21T01:58:34.232Z,-1.10
2018-03-21T02:01:00.549Z,-1.20
2018-03-21T02:03:26.800Z,-1.00
2018-03-21T02:05:53.028Z,-1.10
2018-03-21T02:08:20.396Z,-1.20
2018-03-21T02:10:46.625Z,-0.90
2018-03-21T02:13:13.673Z,-1.10
2018-03-21T02:15:40.699Z,-1.20
2018-03-21T02:18:15.426Z,-1.10
2018-03-21T02:20:41.721Z,-0.90
2018-03-21T02:23:08.943Z,-1.00
2018-03-21T02:25:35.202Z,-1.00
2018-03-21T02:28:01.572Z,-0.90
2018-03-21T02:30:28.555Z,-0.80
2018-03-21T02:32:54.776Z,-0.80
2018-03-21T02:35:21.050Z,-1.10
2018-03-21T02:37:47.614Z,-1.20
2018-03-21T02:40:13.904Z,-1.30
2018-03-21T02:42:40.175Z,-1.10
2018-03-21T02:45:06.526Z,-1.10
2018-03-21T02:47:32.810Z,-1.00
2018-03-21T02:49:59.082Z,-1.00
2018-03-21T02:52:25.344Z,-1.00
2018-03-21T02:54:51.696Z,-1.00
2018-03-21T02:57:18.208Z,-1.10
2018-03-21T02:59:45.286Z,-1.30
2018-03-21T03:02:12.152Z,-1.30
2018-03-21T03:04:39.148Z,-1.20
2018-03-21T03:07:05.448Z,-1.30
2018-03-21T03:09:31.766Z,-1.20
2018-03-21T03:12:12.523Z,-1.20
2018-03-21T03:14:39.438Z,-1.30
2018-03-21T03:17:05.682Z,-1.50
2018-03-21T03:19:31.916Z,-1.60
2018-03-21T03:21:58.257Z,-1.70
2018-03-21T03:24:24.548Z,-1.70
2018-03-21T03:26:50.816Z,-1.60
2018-03-21T03:29:17.796Z,-1.60
2018-03-21T03:31:44.098Z,-1.60
2018-03-21T03:34:11.193Z,-1.80
2018-03-21T03:36:37.728Z,-1.90
2018-03-21T03:39:04.032Z,-1.50
2018-03-21T03:41:30.378Z,-1.80
2018-03-21T03:43:56.702Z,-1.90
2018-03-21T03:46:23.679Z,-2.10
2018-03-21T03:48:49.952Z,-2.10
2018-03-21T03:51:16.542Z,-2.20
2018-03-21T03:53:42.846Z,-1.90
2018-03-21T03:56:09.952Z,-1.60
2018-03-21T03:58:36.221Z,-1.60
2018-03-21T04:01:02.541Z,-1.80
2018-03-21T04:03:28.864Z,-1.90
2018-03-21T04:05:55.140Z,-2.00
2018-03-21T04:08:21.402Z,-2.00
2018-03-21T04:10:47.772Z,-1.90
2018-03-21T04:13:14.112Z,-1.90
2018-03-21T04:15:41.002Z,-2.00
2018-03-21T04:18:07.302Z,-2.00
2018-03-21T04:20:33.654Z,-2.00
2018-03-21T04:22:59.960Z,-1.80
2018-03-21T04:25:26.309Z,-1.90
2018-03-21T04:27:52.565Z,-2.00
2018-03-21T04:30:19.610Z,-2.20
2018-03-21T04:32:46.004Z,-2.20
2018-03-21T04:35:12.246Z,-2.30
2018-03-21T04:37:38.545Z,-2.10
2018-03-21T04:40:04.780Z,-2.00
2018-03-21T04:42:32.193Z,-2.10
2018-03-21T04:44:58.519Z,-1.90
2018-03-21T04:47:25.580Z,-2.10
2018-03-21T04:49:52.578Z,-2.00
2018-03-21T04:52:18.850Z,-2.00
2018-03-21T04:54:45.154Z,-1.70
2018-03-21T04:57:11.456Z,-1.80
2018-03-21T04:59:47.321Z,-2.20
2018-03-21T05:02:14.421Z,-2.30
2018-03-21T05:04:40.681Z,-2.30
2018-03-21T05:07:07.166Z,-2.50
2018-03-21T05:09:33.524Z,-2.70
2018-03-21T05:12:00.546Z,-3.00
2018-03-21T05:14:26.921Z,-3.00
2018-03-21T05:16:53.947Z,-3.20
2018-03-21T05:19:20.210Z,-3.20
2018-03-21T05:21:50.710Z,-3.10
2018-03-21T05:24:17.008Z,-3.10
2018-03-21T05:26:44.049Z,-3.10
2018-03-21T05:29:10.509Z,-3.10
2018-03-21T05:31:37.524Z,-3.00
2018-03-21T05:34:03.957Z,-3.00
2018-03-21T05:36:32.400Z,-3.00
2018-03-21T05:38:59.487Z,-3.10
2018-03-21T05:41:32.097Z,-3.10
2018-03-21T05:43:59.449Z,-3.00
2018-03-21T05:46:25.778Z,-3.00
2018-03-21T05:48:52.793Z,-2.80
2018-03-21T05:51:19.034Z,-2.80
2018-03-21T05:53:46.169Z,-2.80
2018-03-21T05:56:12.436Z,-2.70
2018-03-21T05:58:38.803Z,-2.60
2018-03-21T06:01:05.099Z,-2.40
2018-03-21T06:03:35.752Z,-2.40
2018-03-21T06:06:02.099Z,-2.30
2018-03-21T06:08:28.399Z,-2.20
2018-03-21T06:10:55.413Z,-2.10
2018-03-21T06:13:32.834Z,-2.10
2018-03-21T06:15:59.167Z,-1.80
2018-03-21T06:18:25.466Z,-1.80
2018-03-21T06:20:58.491Z,-1.90
2018-03-21T06:23:24.818Z,-1.80
2018-03-21T06:25:52.094Z,-1.70
2018-03-21T06:28:18.505Z,-1.70
2018-03-21T06:30:44.818Z,-1.60
2018-03-21T06:33:11.363Z,-1.60
2018-03-21T06:35:37.925Z,-1.50
2018-03-21T06:38:04.381Z,-1.60
2018-03-21T06:40:30.627Z,-1.40
2018-03-21T06:42:57.616Z,-0.90
2018-03-21T06:45:23.926Z,-1.00
2018-03-21T06:47:51.183Z,0.10
2018-03-21T06:50:17.464Z,0.10
2018-03-21T06:52:43.753Z,-0.10
2018-03-21T06:55:10.226Z,-0.40
2018-03-21T06:57:36.474Z,-0.70
2018-03-21T07:00:03.478Z,-0.90
2018-03-21T07:02:29.869Z,-0.90
2018-03-21T07:04:56.824Z,-0.10
2018-03-21T07:07:23.879Z,0.20
2018-03-21T07:09:51.184Z,0.00
2018-03-21T07:12:18.619Z,0.00
2018-03-21T07:14:57.317Z,-0.20
2018-03-21T07:17:23.771Z,-0.30
2018-03-21T07:20:11.627Z,-0.40
2018-03-21T07:22:37.878Z,-0.80
2018-03-21T07:25:04.156Z,-0.90
2018-03-21T07:27:30.396Z,-0.70
2018-03-21T07:29:56.730Z,-0.80
2018-03-21T07:32:23.783Z,-0.40
2018-03-21T07:34:50.248Z,-0.40
2018-03-21T07:37:16.516Z,-0.30
2018-03-21T07:39:42.813Z,-0.20
2018-03-21T07:42:09.929Z,-0.10
2018-03-21T07:44:36.226Z,-0.10
2018-03-21T07:47:02.537Z,0.60
2018-03-21T07:49:28.836Z,0.80
2018-03-21T07:51:56.909Z,0.90
2018-03-21T07:54:25.122Z,1.10
2018-03-21T07:57:03.459Z,1.00
2018-03-21T07:59:29.748Z,0.90
2018-03-21T08:01:56.770Z,0.80
2018-03-21T08:04:23.024Z,0.80
2018-03-21T08:06:49.325Z,0.60
2018-03-21T08:09:15.771Z,0.70
2018-03-21T08:11:42.406Z,0.60
2018-03-21T08:14:08.725Z,0.40
2018-03-21T08:16:35.706Z,0.80
2018-03-21T08:19:01.958Z,0.80
2018-03-21T08:21:28.239Z,1.50
2018-03-21T08:23:54.494Z,2.00
2018-03-21T08:26:20.869Z,2.80
2018-03-21T08:28:47.191Z,3.10
2018-03-21T08:31:14.226Z,3.50
2018-03-21T08:33:40.509Z,3.50
2018-03-21T08:36:06.790Z,3.50
2018-03-21T08:38:33.785Z,3.80
2018-03-21T08:41:00.090Z,3.70
2018-03-21T08:43:26.369Z,3.80
2018-03-21T08:45:52.623Z,4.10
2018-03-21T08:48:18.889Z,4.00
2018-03-21T08:50:45.987Z,3.80
2018-03-21T08:53:12.586Z,3.70
2018-03-21T08:55:39.704Z,3.70
2018-03-21T08:58:06.040Z,3.70
2018-03-21T09:00:32.315Z,3.60
2018-03-21T09:02:59.377Z,3.90
2018-03-21T09:05:26.501Z,3.40
2018-03-21T09:07:52.843Z,3.40
2018-03-21T09:10:19.136Z,3.20
2018-03-21T09:12:46.138Z,3.00
2018-03-21T09:15:13.381Z,2.40
2018-03-21T09:17:40.484Z,2.40
2018-03-21T09:20:06.828Z,2.10
2018-03-21T09:22:33.102Z,2.20
2018-03-21T09:25:00.115Z,3.00
2018-03-21T09:27:26.367Z,3.00
2018-03-21T09:29:52.678Z,2.50
2018-03-21T09:32:19.075Z,2.20
2018-03-21T09:34:46.095Z,2.00
2018-03-21T09:37:12.391Z,2.00
2018-03-21T09:39:43.700Z,1.90
2018-03-21T09:42:10.295Z,1.90
2018-03-21T09:44:37.300Z,1.90
2018-03-21T09:47:03.631Z,1.90
2018-03-21T09:49:29.947Z,2.10
2018-03-21T09:51:56.957Z,2.80
2018-03-21T09:54:23.246Z,2.80
2018-03-21T09:57:10.399Z,3.90
2018-03-21T09:59:36.771Z,3.80
2018-03-21T10:02:03.115Z,4.50
2018-03-21T10:04:29.436Z,4.60
2018-03-21T10:06:55.725Z,4.50
2018-03-21T10:09:22.207Z,5.00
2018-03-21T10:11:49.287Z,5.00
2018-03-21T10:14:15.831Z,5.00
2018-03-21T10:16:42.508Z,5.70
2018-03-21T10:19:08.850Z,5.90
2018-03-21T10:21:35.221Z,5.70
2018-03-21T10:24:01.505Z,5.60
2018-03-21T10:26:27.785Z,5.40
2018-03-21T10:28:54.102Z,5.10
2018-03-21T10:31:20.502Z,5.00
2018-03-21T10:33:46.760Z,5.30
2018-03-21T10:36:13.055Z,5.30
2018-03-21T10:38:39.499Z,5.10
2018-03-21T10:41:05.828Z,4.60
2018-03-21T10:43:32.215Z,4.40
2018-03-21T10:45:58.485Z,4.30
2018-03-21T10:48:25.473Z,4.10
2018-03-21T10:50:51.853Z,4.10
2018-03-21T10:53:18.295Z,3.90
2018-03-21T10:55:44.591Z,3.70
2018-03-21T10:58:11.934Z,3.70
2018-03-21T11:00:38.313Z,3.70
2018-03-21T11:03:04.640Z,3.70
2018-03-21T11:05:30.977Z,3.90
2018-03-21T11:07:57.955Z,3.50
2018-03-21T11:10:24.249Z,3.50
2018-03-21T11:12:50.569Z,3.50
2018-03-21T11:15:16.892Z,3.50
2018-03-21T11:17:43.179Z,3.60
2018-03-21T11:20:09.470Z,3.50
2018-03-21T11:22:35.715Z,3.60
2018-03-21T11:25:02.042Z,3.70
2018-03-21T11:27:28.380Z,3.60
2018-03-21T11:29:54.646Z,3.90
2018-03-21T11:32:20.976Z,4.10
2018-03-21T11:34:47.328Z,4.30
2018-03-21T11:37:13.649Z,4.00
2018-03-21T11:39:40.742Z,3.80
2018-03-21T11:42:07.043Z,3.80
2018-03-21T11:44:34.066Z,3.70
2018-03-21T11:47:00.367Z,3.60
2018-03-21T11:49:26.688Z,3.60
2018-03-21T11:51:53.065Z,3.80
2018-03-21T11:54:19.625Z,4.00
2018-03-21T11:56:45.987Z,4.30
2018-03-21T11:59:12.314Z,4.60
2018-03-21T12:01:38.604Z,5.10
2018-03-21T12:04:12.274Z,5.70
2018-03-21T12:06:42.029Z,5.70
2018-03-21T12:09:09.266Z,7.20
2018-03-21T12:11:39.029Z,7.20
2018-03-21T12:14:06.074Z,7.10
2018-03-21T12:16:32.330Z,7.00
2018-03-21T12:18:58.590Z,6.70
2018-03-21T12:21:24.855Z,6.80
2018-03-21T12:23:51.138Z,6.30
2018-03-21T12:26:17.458Z,6.90
2018-03-21T12:28:43.720Z,7.60
2018-03-21T12:31:10.011Z,7.70
2018-03-21T12:33:36.298Z,7.40
2018-03-21T12:36:02.700Z,7.20
2018-03-21T12:38:28.934Z,7.20
2018-03-21T12:40:55.278Z,7.10
2018-03-21T12:43:21.568Z,6.90
2018-03-21T12:45:49.959Z,6.80
2018-03-21T12:48:16.397Z,7.30
2018-03-21T12:50:42.690Z,7.50
2018-03-21T12:53:09.753Z,7.00
2018-03-21T12:55:36.099Z,7.00
2018-03-21T12:58:02.350Z,6.70
2018-03-21T13:00:35.788Z,7.50
2018-03-21T13:03:02.114Z,7.80
2018-03-21T13:05:28.447Z,7.80
2018-03-21T13:07:58.888Z,7.50
2018-03-21T13:10:25.278Z,7.10
2018-03-21T13:12:51.601Z,7.20
2018-03-21T13:15:17.876Z,7.20
2018-03-21T13:17:44.425Z,7.10
2018-03-21T13:20:10.848Z,7.10
2018-03-21T13:22:37.170Z,7.00
2018-03-21T13:25:03.451Z,7.20
2018-03-21T13:27:34.904Z,7.30
2018-03-21T13:30:01.148Z,7.30
2018-03-21T13:32:28.155Z,7.10
2018-03-21T13:34:54.451Z,7.00
2018-03-21T13:37:27.615Z,6.90
2018-03-21T13:39:53.882Z,6.70
2018-03-21T13:42:20.250Z,6.60
2018-03-21T13:44:46.548Z,6.70
2018-03-21T13:47:12.925Z,6.60
2018-03-21T13:49:39.214Z,6.70
2018-03-21T13:52:05.472Z,6.50
2018-03-21T13:54:31.776Z,6.60
2018-03-21T13:56:58.786Z,6.50
2018-03-21T13:59:25.110Z,6.50
2018-03-21T14:01:57.830Z,6.40
2018-03-21T14:04:24.184Z,6.60
2018-03-21T14:06:50.430Z,6.70
2018-03-21T14:09:16.773Z,6.70
2018-03-21T14:11:43.051Z,6.70
2018-03-21T14:14:09.341Z,6.60
2018-03-21T14:16:35.649Z,6.60
2018-03-21T14:19:02.715Z,6.80
2018-03-21T14:21:29.006Z,6.80
2018-03-21T14:24:06.269Z,7.30
2018-03-21T14:26:32.508Z,7.10
2018-03-21T14:28:58.816Z,6.90
2018-03-21T14:31:25.844Z,6.70
2018-03-21T14:33:52.134Z,6.70
2018-03-21T14:36:18.445Z,6.80
2018-03-21T14:38:44.820Z,6.80
2018-03-21T14:41:11.150Z,6.90
2018-03-21T14:43:38.137Z,6.90
2018-03-21T14:46:04.435Z,6.90
2018-03-21T14:48:30.766Z,7.00
2018-03-21T14:50:57.036Z,6.80
2018-03-21T14:53:24.119Z,6.40
2018-03-21T14:55:50.404Z,6.40
2018-03-21T14:58:16.732Z,6.50
2018-03-21T15:00:43.104Z,6.60
2018-03-21T15:03:09.387Z,6.40
2018-03-21T15:05:35.691Z,6.30
2018-03-21T15:08:02.214Z,6.50
2018-03-21T15:10:28.506Z,6.70
2018-03-21T15:12:55.573Z,6.60
2018-03-21T15:15:22.639Z,6.50
2018-03-21T15:18:01.149Z,6.50
2018-03-21T15:20:27.419Z,6.60
2018-03-21T15:22:53.694Z,6.90
2018-03-21T15:25:20.060Z,7.20
2018-03-21T15:27:46.400Z,7.50
2018-03-21T15:30:12.776Z,7.20
2018-03-21T15:32:39.802Z,7.00
2018-03-21T15:35:06.175Z,7.00
2018-03-21T15:37:32.494Z,6.90
2018-03-21T15:39:58.768Z,6.70
2018-03-21T15:42:25.786Z,6.40
2018-03-21T15:44:52.067Z,6.40
2018-03-21T15:47:18.508Z,6.30
2018-03-21T15:49:45.675Z,6.10
2018-03-21T15:52:12.806Z,6.00
2018-03-21T15:54:39.875Z,5.70
2018-03-21T15:57:06.175Z,5.70
2018-03-21T15:59:32.443Z,5.50
2018-03-21T16:01:58.738Z,5.40
2018-03-21T16:04:25.767Z,4.90
2018-03-21T16:06:52.057Z,4.90
2018-03-21T16:09:18.379Z,4.80
2018-03-21T16:11:45.471Z,5.10
2018-03-21T16:14:12.136Z,5.10
2018-03-21T16:16:38.464Z,5.10
2018-03-21T16:19:04.818Z,5.00
2018-03-21T16:21:31.106Z,5.00
2018-03-21T16:23:57.377Z,4.90
2018-03-21T16:26:23.650Z,4.70
2018-03-21T16:28:49.907Z,4.60
2018-03-21T16:31:16.413Z,4.70
2018-03-21T16:33:42.821Z,4.50
2018-03-21T16:36:09.153Z,4.30
2018-03-21T16:38:35.451Z,4.10
2018-03-21T16:41:01.781Z,4.00
2018-03-21T16:43:28.088Z,3.90
2018-03-21T16:45:54.360Z,3.70
2018-03-21T16:48:20.730Z,3.70
2018-03-21T16:50:47.088Z,3.50
2018-03-21T16:53:13.478Z,3.50
2018-03-21T16:55:40.518Z,3.30
2018-03-21T16:58:06.824Z,3.30
2018-03-21T17:00:33.148Z,3.30
2018-03-21T17:02:59.448Z,3.20
2018-03-21T17:05:25.751Z,3.20
2018-03-21T17:07:52.101Z,3.20
2018-03-21T17:10:18.864Z,3.10
2018-03-21T17:12:45.965Z,2.90
2018-03-21T17:15:13.021Z,2.80
2018-03-21T17:17:40.046Z,2.60
2018-03-21T17:20:06.373Z,2.50
2018-03-21T17:22:32.608Z,2.40
2018-03-21T17:24:58.956Z,2.30
2018-03-21T17:27:25.241Z,2.10
2018-03-21T17:29:51.700Z,2.10
2018-03-21T17:32:18.791Z,1.90
2018-03-21T17:34:45.156Z,1.90
2018-03-21T17:37:11.657Z,1.80
2018-03-21T17:39:38.734Z,1.70
2018-03-21T17:42:05.071Z,1.70
2018-03-21T17:44:32.144Z,1.60
2018-03-21T17:46:58.440Z,1.60
2018-03-21T17:49:24.719Z,1.60
2018-03-21T17:51:51.124Z,1.60
2018-03-21T17:54:17.499Z,1.50
2018-03-21T17:56:43.928Z,1.40
2018-03-21T17:59:10.234Z,1.40
2018-03-21T18:01:36.599Z,1.30
2018-03-21T18:04:02.877Z,1.10
2018-03-21T18:06:29.984Z,1.00
2018-03-21T18:08:56.379Z,1.00
2018-03-21T18:11:23.877Z,0.90
2018-03-21T18:13:50.239Z,0.80
2018-03-21T18:16:16.545Z,0.80
2018-03-21T18:18:45.821Z,0.70
2018-03-21T18:21:13.660Z,0.70
2018-03-21T18:23:40.178Z,0.70
2018-03-21T18:26:06.606Z,0.70
2018-03-21T18:28:32.830Z,0.60
2018-03-21T18:30:59.143Z,0.60
2018-03-21T18:33:25.440Z,0.50
2018-03-21T18:35:52.981Z,0.40
2018-03-21T18:38:19.312Z,0.40
2018-03-21T18:40:45.944Z,0.30
2018-03-21T18:43:13.345Z,0.10
2018-03-21T18:45:40.454Z,0.10
2018-03-21T18:48:06.759Z,0.10
2018-03-21T18:50:33.020Z,0.20
2018-03-21T18:53:00.197Z,0.20
2018-03-21T18:55:27.280Z,0.20
2018-03-21T18:57:53.542Z,0.20
2018-03-21T19:00:19.870Z,0.10
2018-03-21T19:02:46.271Z,0.10
2018-03-21T19:05:13.540Z,-0.10
2018-03-21T19:07:40.567Z,0.10
2018-03-21T19:10:06.928Z,0.10
2018-03-21T19:12:35.036Z,0.40
2018-03-21T19:15:01.426Z,0.40
2018-03-21T19:17:27.716Z,0.60
2018-03-21T19:19:54.981Z,0.60
2018-03-21T19:22:21.350Z,0.60
2018-03-21T19:24:47.803Z,0.70
2018-03-21T19:27:14.169Z,0.70
2018-03-21T19:29:40.540Z,0.70
2018-03-21T19:32:06.899Z,0.50
2018-03-21T19:34:33.924Z,0.20
2018-03-21T19:37:00.226Z,0.10
2018-03-21T19:39:26.565Z,0.10
2018-03-21T19:41:53.578Z,-0.10
2018-03-21T19:44:19.850Z,-0.20
2018-03-21T19:46:46.914Z,-0.20
2018-03-21T19:49:14.138Z,-0.30
2018-03-21T19:51:40.455Z,-0.30
2018-03-21T19:54:06.796Z,-0.10
2018-03-21T19:56:33.786Z,-0.10
2018-03-21T19:59:00.112Z,-0.10
2018-03-21T20:01:26.376Z,-0.20
2018-03-21T20:03:52.659Z,-0.10
2018-03-21T20:06:19.918Z,-0.20
2018-03-21T20:08:47.098Z,0.00
2018-03-21T20:11:13.401Z,-0.10
2018-03-21T20:13:39.675Z,0.10
2018-03-21T20:16:07.002Z,-0.10
2018-03-21T20:18:33.295Z,-0.10
2018-03-21T20:20:59.538Z,-0.20
2018-03-21T20:23:25.991Z,-0.30
2018-03-21T20:25:52.239Z,-0.20
2018-03-21T20:28:18.589Z,-0.30
2018-03-21T20:30:45.312Z,-0.30
2018-03-21T20:33:11.762Z,-0.40
2018-03-21T20:35:38.079Z,-0.40
2018-03-21T20:38:05.133Z,-0.30
2018-03-21T20:40:32.115Z,-0.10
2018-03-21T20:42:58.409Z,-0.10
2018-03-21T20:45:24.766Z,-0.20
2018-03-21T20:47:51.018Z,0.00
2018-03-21T20:50:18.132Z,-0.10
2018-03-21T20:52:44.480Z,-0.10
2018-03-21T20:55:10.748Z,0.20
2018-03-21T20:57:37.040Z,0.10
2018-03-21T21:00:04.084Z,0.20
2018-03-21T21:02:30.418Z,0.10
2018-03-21T21:04:57.442Z,0.40
2018-03-21T21:07:23.730Z,0.40
2018-03-21T21:09:50.795Z,0.20
2018-03-21T21:12:17.832Z,0.00
2018-03-21T21:14:44.874Z,0.00
2018-03-21T21:17:11.190Z,0.00
2018-03-21T21:19:37.446Z,-0.10
2018-03-21T21:22:03.716Z,0.10
2018-03-21T21:24:29.978Z,0.10
2018-03-21T21:26:56.986Z,0.50
2018-03-21T21:29:23.258Z,0.50
2018-03-21T21:31:49.712Z,0.30
2018-03-21T21:34:16.811Z,-0.30
2018-03-21T21:36:44.136Z,-0.30
2018-03-21T21:39:11.188Z,-0.10
2018-03-21T21:41:37.441Z,-0.20
2018-03-21T21:44:04.512Z,-0.20
2018-03-21T21:46:30.818Z,-0.20
2018-03-21T21:48:57.157Z,-0.20
2018-03-21T21:51:23.477Z,-0.40
2018-03-21T21:53:49.736Z,-0.30
2018-03-21T21:56:16.023Z,0.20
2018-03-21T21:58:43.202Z,0.30
2018-03-21T22:01:09.507Z,0.40
2018-03-21T22:03:35.786Z,0.40
2018-03-21T22:06:02.088Z,0.40
2018-03-21T22:08:28.371Z,0.30
2018-03-21T22:10:54.633Z,0.30
2018-03-21T22:13:20.987Z,0.30
2018-03-21T22:15:47.242Z,-0.10
2018-03-21T22:18:13.815Z,-0.10
2018-03-21T22:20:40.116Z,-0.10
2018-03-21T22:23:06.386Z,-0.10
2018-03-21T22:25:32.605Z,0.10
2018-03-21T22:27:58.950Z,0.30
2018-03-21T22:30:25.207Z,0.30
2018-03-21T22:32:51.598Z,0.40
2018-03-21T22:35:18.663Z,0.60
2018-03-21T22:37:45.002Z,0.60
2018-03-21T22:40:11.299Z,0.40
2018-03-21T22:42:37.544Z,0.10
2018-03-21T22:45:03.830Z,0.00
2018-03-21T22:47:30.144Z,-0.10
2018-03-21T22:49:57.158Z,-0.10
2018-03-21T22:52:23.481Z,-0.10
2018-03-21T22:54:49.735Z,-0.20
2018-03-21T22:57:16.742Z,-0.50
2018-03-21T22:59:43.173Z,-0.50
2018-03-21T23:02:09.486Z,-0.60
2018-03-21T23:04:35.811Z,-0.40
2018-03-21T23:07:02.123Z,-0.50
2018-03-21T23:09:28.412Z,-0.70
2018-03-21T23:11:54.741Z,-0.60
2018-03-21T23:14:21.124Z,-0.30
2018-03-21T23:16:47.476Z,-0.20
2018-03-21T23:19:13.821Z,-0.10
2018-03-21T23:21:40.123Z,-0.30
2018-03-21T23:24:06.395Z,-0.50
2018-03-21T23:26:32.620Z,-0.60
2018-03-21T23:28:58.921Z,-0.80
2018-03-21T23:31:25.171Z,-1.00
2018-03-21T23:33:52.158Z,-0.70
2018-03-21T23:36:18.515Z,-0.70
2018-03-21T23:38:44.709Z,-0.90
2018-03-21T23:41:11.740Z,-0.80
2018-03-21T23:43:38.105Z,-0.80
2018-03-21T23:46:04.384Z,-0.90
2018-03-21T23:48:30.888Z,-0.80
2018-03-21T23:50:57.911Z,-0.80
2018-03-21T23:53:24.191Z,-0.80
2018-03-21T23:55:50.558Z,-0.80
2018-03-21T23:58:17.624Z,-1.10
